Time;durP1;ratioP1;P1;durP2;ratioP2;P2;SDS_P1;SDS_P2;PMS_P1;PMS_P2;Temp;Humidity;BMP_temperature;BMP_pressure;BME280_temperature;BME280_humidity;BME280_pressure;Samples;Min_cycle;Max_cycle;Signal;HPM_P1;HPM_P2
2022/12/15 00:39:16;;;;;;;38.17;17.90;;;;;;;;;;5052185;28;20451;-54
2022/12/15 00:41:41;;;;;;;39.20;17.60;;;;;;;;;;5051600;28;20037;-60
2022/12/15 00:44:07;;;;;;;39.20;17.60;;;;;;;;;;5051128;28;20074;-59
2022/12/15 01:22:36;;;;;;;33.97;15.38;;;;;;;;;;5050974;28;20147;-53
2022/12/15 01:25:01;;;;;;;35.17;16.27;;;;;;;;;;5051734;28;20444;-61
2022/12/15 01:27:26;;;;;;;36.92;16.20;;;;;;;;;;5043526;28;20037;-57
2022/12/15 01:29:52;;;;;;;34.03;16.52;;;;;;;;;;5045533;28;20044;-57
2022/12/15 01:32:17;;;;;;;33.05;16.13;;;;;;;;;;5031416;28;20074;-56
2022/12/15 01:34:43;;;;;;;35.05;16.05;;;;;;;;;;5025790;28;20025;-57
2022/12/15 01:37:08;;;;;;;41.88;17.45;;;;;;;;;;5040510;28;20556;-58
2022/12/15 01:42:18;;;;;;;36.50;16.67;;;;;;;;;;5040085;28;20043;-58
2022/12/15 01:44:48;;;;;;;34.90;16.00;;;;;;;;;;5015017;28;20040;-55
2022/12/15 01:47:13;;;;;;;41.38;16.10;;;;;;;;;;5034548;28;20402;-56
2022/12/15 01:49:41;;;;;;;38.83;16.73;;;;;;;;;;5014770;28;20045;-55
2022/12/15 01:52:09;;;;;;;33.10;15.60;;;;;;;;;;5035578;28;20057;-58
2022/12/15 01:54:41;;;;;;;32.15;15.43;;;;;;;;;;5049478;28;20025;-56
2022/12/15 01:57:12;;;;;;;34.13;15.85;;;;;;;;;;5050854;28;20041;-57
2022/12/15 01:59:45;;;;;;;36.22;16.48;;;;;;;;;;5024689;28;20033;-53
2022/12/15 02:02:12;;;;;;;30.25;15.50;;;;;;;;;;5051105;28;20032;-59
2022/12/15 02:04:37;;;;;;;39.05;16.60;;;;;;;;;;5031470;28;20028;-54
2022/12/15 02:07:03;;;;;;;34.45;16.02;;;;;;;;;;5050699;28;20110;-56
2022/12/15 02:09:29;;;;;;;38.20;16.05;;;;;;;;;;5043697;28;20429;-54
2022/12/15 02:12:19;;;;;;;31.52;15.55;;;;;;;;;;5048003;28;20029;-55
2022/12/15 02:15:16;;;;;;;36.78;16.48;;;;;;;;;;5032476;28;20045;-52
2022/12/15 02:18:15;;;;;;;33.00;15.68;;;;;;;;;;5033292;28;20040;-54
2022/12/15 02:21:08;;;;;;;40.72;15.75;;;;;;;;;;5032434;28;20037;-56
2022/12/15 02:23:59;;;;;;;34.33;15.90;;;;;;;;;;5027684;28;20063;-55
2022/12/15 02:26:58;;;;;;;35.22;14.75;;;;;;;;;;5033308;28;20037;-57
2022/12/15 02:29:53;;;;;;;34.50;15.38;;;;;;;;;;5046144;28;20040;-56
2022/12/15 02:32:30;;;;;;;32.47;15.63;;;;;;;;;;5050014;28;20537;-55
2022/12/15 02:35:07;;;;;;;31.40;16.00;;;;;;;;;;5050501;28;20051;-53
2022/12/15 02:37:36;;;;;;;30.05;14.35;;;;;;;;;;5034146;28;20214;-61
2022/12/15 02:40:03;;;;;;;36.35;15.80;;;;;;;;;;5049659;28;20029;-57
2022/12/15 02:42:31;;;;;;;35.40;15.60;;;;;;;;;;5047840;28;20542;-56
2022/12/15 02:45:08;;;;;;;36.22;16.05;;;;;;;;;;5049681;28;20037;-58
2022/12/15 02:48:09;;;;;;;33.45;15.88;;;;;;;;;;5048812;28;20214;-56
2022/12/15 02:51:16;;;;;;;32.75;14.73;;;;;;;;;;5046139;28;20131;-56
2022/12/15 02:53:49;;;;;;;35.90;14.77;;;;;;;;;;5049233;28;20044;-56
2022/12/15 02:56:22;;;;;;;35.05;15.32;;;;;;;;;;5061526;28;20106;-60
2022/12/15 02:59:12;;;;;;;39.50;16.70;;;;;;;;;;5051710;28;20120;-57
2022/12/15 03:01:57;;;;;;;32.60;14.93;;;;;;;;;;5039228;28;20033;-55
2022/12/15 03:04:24;;;;;;;33.08;15.23;;;;;;;;;;5036768;28;20124;-53
2022/12/15 03:07:09;;;;;;;32.17;15.98;;;;;;;;;;5052858;28;20128;-56
2022/12/15 03:09:34;;;;;;;35.75;15.50;;;;;;;;;;5054697;28;20029;-57
2022/12/15 03:12:00;;;;;;;30.50;14.48;;;;;;;;;;5052132;28;20047;-57
2022/12/15 03:14:25;;;;;;;37.40;14.93;;;;;;;;;;5052323;28;20454;-56
2022/12/15 03:16:52;;;;;;;34.80;16.67;;;;;;;;;;5053738;28;20535;-56
2022/12/15 03:19:18;;;;;;;34.55;16.02;;;;;;;;;;5053542;28;20056;-61
2022/12/15 03:21:43;;;;;;;30.17;14.38;;;;;;;;;;5034198;28;20112;-54
2022/12/15 03:24:09;;;;;;;35.95;16.08;;;;;;;;;;5040859;28;20024;-56
2022/12/15 03:26:35;;;;;;;30.50;14.75;;;;;;;;;;5034805;28;20026;-57
2022/12/15 03:29:00;;;;;;;34.72;15.68;;;;;;;;;;5035208;28;20070;-55
2022/12/15 03:31:25;;;;;;;34.92;15.48;;;;;;;;;;5052461;28;20040;-56
2022/12/15 03:33:51;;;;;;;34.00;14.55;;;;;;;;;;5053489;28;20428;-57
2022/12/15 03:36:16;;;;;;;36.47;16.85;;;;;;;;;;5052722;28;20432;-61
2022/12/15 03:38:42;;;;;;;32.13;14.63;;;;;;;;;;5034442;28;20087;-55
2022/12/15 03:41:07;;;;;;;31.80;14.40;;;;;;;;;;5039064;28;20033;-54
2022/12/15 03:43:33;;;;;;;27.85;13.73;;;;;;;;;;5047970;28;20025;-59
2022/12/15 03:45:58;;;;;;;28.90;14.48;;;;;;;;;;5054801;28;20362;-54
2022/12/15 03:48:23;;;;;;;28.65;14.63;;;;;;;;;;5034594;28;20041;-54
2022/12/15 03:50:49;;;;;;;33.67;14.73;;;;;;;;;;5021903;28;20069;-57
2022/12/15 03:53:14;;;;;;;29.17;13.75;;;;;;;;;;5037939;28;20045;-55
2022/12/15 03:55:40;;;;;;;29.58;13.77;;;;;;;;;;5049457;28;20049;-58
2022/12/15 03:58:05;;;;;;;32.70;15.00;;;;;;;;;;5052351;28;20075;-57
2022/12/15 04:00:31;;;;;;;33.70;15.02;;;;;;;;;;5050766;28;20458;-56
2022/12/15 04:02:57;;;;;;;31.33;14.05;;;;;;;;;;5048705;28;20041;-56
2022/12/15 04:05:31;;;;;;;33.28;14.88;;;;;;;;;;5052558;28;20025;-55
2022/12/15 04:07:58;;;;;;;34.03;15.05;;;;;;;;;;5033416;28;20401;-55
2022/12/15 04:10:25;;;;;;;33.38;15.02;;;;;;;;;;5052634;28;20104;-55
2022/12/15 04:12:58;;;;;;;32.03;14.32;;;;;;;;;;5034167;28;20040;-54
2022/12/15 04:15:25;;;;;;;29.23;13.77;;;;;;;;;;5032552;28;20025;-54
2022/12/15 04:17:50;;;;;;;31.77;14.93;;;;;;;;;;5049861;28;20033;-54
2022/12/15 04:20:15;;;;;;;27.40;13.27;;;;;;;;;;5054018;28;20036;-54
2022/12/15 04:22:43;;;;;;;30.35;14.77;;;;;;;;;;5050224;28;20515;-57
2022/12/15 05:33:51;;;;;;;32.63;14.25;;;;;;;;;;5051339;28;20036;-57
2022/12/15 05:36:17;;;;;;;30.48;14.80;;;;;;;;;;5049402;28;20033;-53
2022/12/15 05:38:42;;;;;;;31.38;14.68;;;;;;;;;;5050700;28;20766;-56
2022/12/15 05:41:08;;;;;;;28.35;13.70;;;;;;;;;;5050528;28;20108;-55
2022/12/15 05:43:33;;;;;;;31.88;14.48;;;;;;;;;;5044895;28;20029;-56
2022/12/15 05:46:03;;;;;;;33.65;15.10;;;;;;;;;;5037942;28;20040;-55
2022/12/15 05:48:28;;;;;;;31.90;13.95;;;;;;;;;;5016802;28;20051;-52
2022/12/15 05:50:54;;;;;;;33.70;15.50;;;;;;;;;;5049941;28;20407;-55
2022/12/15 05:53:19;;;;;;;30.92;14.00;;;;;;;;;;5049813;28;20064;-56
2022/12/15 05:55:44;;;;;;;27.92;13.93;;;;;;;;;;5035659;28;20038;-53
2022/12/15 05:58:10;;;;;;;32.70;14.93;;;;;;;;;;5047125;28;20504;-57
2022/12/15 06:00:35;;;;;;;34.15;14.85;;;;;;;;;;5018532;28;20025;-56
2022/12/15 06:03:01;;;;;;;32.95;14.98;;;;;;;;;;5051543;28;20060;-55
2022/12/15 06:05:27;;;;;;;31.27;15.10;;;;;;;;;;5051853;28;20082;-60
2022/12/15 06:07:53;;;;;;;34.63;15.43;;;;;;;;;;5050163;28;20037;-54
2022/12/15 06:10:18;;;;;;;37.13;15.35;;;;;;;;;;5050515;28;20116;-54
2022/12/15 06:12:44;;;;;;;32.15;15.10;;;;;;;;;;5051363;28;20272;-57
2022/12/15 06:15:09;;;;;;;38.05;15.73;;;;;;;;;;5050995;28;20033;-55
2022/12/15 06:17:35;;;;;;;33.25;15.27;;;;;;;;;;5051460;28;20029;-53
2022/12/15 06:20:01;;;;;;;32.67;15.18;;;;;;;;;;5051306;28;20033;-57
2022/12/15 06:22:28;;;;;;;32.08;16.15;;;;;;;;;;5050817;28;20064;-59
2022/12/15 06:24:53;;;;;;;37.03;16.08;;;;;;;;;;5050386;28;20078;-53
2022/12/15 06:27:18;;;;;;;37.58;15.50;;;;;;;;;;5046646;28;20041;-55
2022/12/15 06:29:44;;;;;;;39.33;17.15;;;;;;;;;;5030920;28;20120;-53
2022/12/15 06:32:09;;;;;;;34.70;16.20;;;;;;;;;;5029212;28;20029;-54
2022/12/15 06:34:35;;;;;;;39.65;16.50;;;;;;;;;;5050865;28;20033;-57
2022/12/15 06:37:01;;;;;;;30.45;14.77;;;;;;;;;;5039184;28;20045;-57
2022/12/15 06:39:26;;;;;;;30.33;16.48;;;;;;;;;;5051591;28;20029;-60
2022/12/15 06:41:52;;;;;;;31.52;14.80;;;;;;;;;;5045869;28;20040;-53
2022/12/15 06:44:17;;;;;;;57.08;26.23;;;;;;;;;;5049696;28;20036;-60
2022/12/15 06:46:44;;;;;;;54.55;26.20;;;;;;;;;;5050179;28;20047;-59
2022/12/15 06:49:10;;;;;;;45.28;20.15;;;;;;;;;;5033847;28;20036;-59
2022/12/15 06:51:35;;;;;;;35.40;15.75;;;;;;;;;;5049596;28;20029;-58
2022/12/15 06:54:01;;;;;;;38.38;16.15;;;;;;;;;;5051572;28;20028;-59
2022/12/15 06:56:30;;;;;;;34.60;16.58;;;;;;;;;;5050830;28;20063;-61
2022/12/15 06:58:57;;;;;;;40.40;17.90;;;;;;;;;;5051551;28;20037;-58
2022/12/15 07:01:23;;;;;;;39.35;17.33;;;;;;;;;;5050740;28;20064;-61
2022/12/15 07:03:49;;;;;;;37.25;17.00;;;;;;;;;;5049352;28;20032;-56
2022/12/15 07:06:15;;;;;;;34.75;17.50;;;;;;;;;;5048138;28;20036;-57
2022/12/15 07:08:42;;;;;;;38.20;17.10;;;;;;;;;;5050113;28;20021;-60
2022/12/15 07:11:11;;;;;;;36.45;16.30;;;;;;;;;;5050953;28;20032;-57
2022/12/15 07:13:37;;;;;;;33.00;16.17;;;;;;;;;;5032870;28;20461;-60
2022/12/15 07:16:05;;;;;;;32.50;16.20;;;;;;;;;;5050659;28;20141;-58
2022/12/15 07:18:30;;;;;;;36.30;16.75;;;;;;;;;;5050119;28;20036;-61
2022/12/15 07:21:01;;;;;;;36.80;16.83;;;;;;;;;;5049932;28;20045;-57
2022/12/15 07:23:28;;;;;;;37.70;16.90;;;;;;;;;;5048627;28;20029;-59
2022/12/15 07:25:53;;;;;;;33.58;16.30;;;;;;;;;;5041079;28;20044;-56
2022/12/15 07:28:18;;;;;;;42.22;17.45;;;;;;;;;;5030986;28;20025;-60
2022/12/15 07:30:44;;;;;;;34.40;16.77;;;;;;;;;;5041440;28;20548;-58
2022/12/15 07:33:09;;;;;;;36.63;15.70;;;;;;;;;;5032619;28;20033;-59
2022/12/15 07:35:35;;;;;;;38.75;17.33;;;;;;;;;;5041113;28;20033;-58
2022/12/15 07:38:04;;;;;;;33.97;15.40;;;;;;;;;;5033267;28;20041;-60
2022/12/15 07:40:29;;;;;;;39.58;17.00;;;;;;;;;;5049663;28;20124;-62
2022/12/15 07:42:55;;;;;;;31.45;15.57;;;;;;;;;;5033221;28;20108;-60
2022/12/15 07:45:21;;;;;;;35.08;16.05;;;;;;;;;;5049409;28;20120;-57
2022/12/15 07:47:49;;;;;;;31.80;14.73;;;;;;;;;;5048199;28;20121;-57
2022/12/15 07:50:14;;;;;;;33.08;15.13;;;;;;;;;;5047485;28;20120;-60
2022/12/15 07:52:39;;;;;;;35.28;17.05;;;;;;;;;;5050640;28;20075;-61
2022/12/15 07:55:05;;;;;;;36.33;17.08;;;;;;;;;;5053676;28;20036;-60
2022/12/15 07:57:31;;;;;;;35.60;16.95;;;;;;;;;;5053921;28;20049;-62
2022/12/15 07:59:57;;;;;;;37.05;16.90;;;;;;;;;;5052369;28;20051;-58
2022/12/15 08:02:22;;;;;;;43.35;17.95;;;;;;;;;;5050206;28;20033;-59
2022/12/15 08:04:47;;;;;;;34.40;17.00;;;;;;;;;;5053338;28;20750;-60
2022/12/15 08:07:13;;;;;;;36.25;15.82;;;;;;;;;;5021251;28;20164;-61
2022/12/15 08:09:38;;;;;;;33.03;16.42;;;;;;;;;;5035438;28;20028;-59
2022/12/15 08:12:04;;;;;;;38.22;16.70;;;;;;;;;;5053138;28;20458;-60
2022/12/15 08:14:30;;;;;;;41.08;16.65;;;;;;;;;;5053830;28;20025;-62
2022/12/15 08:16:56;;;;;;;39.35;16.60;;;;;;;;;;5035205;28;20033;-58
2022/12/15 08:19:22;;;;;;;37.92;18.95;;;;;;;;;;5054040;28;20095;-59
2022/12/15 08:21:47;;;;;;;39.35;18.17;;;;;;;;;;5027863;28;20535;-60
2022/12/15 08:24:13;;;;;;;39.95;18.33;;;;;;;;;;5052423;28;20033;-58
2022/12/15 08:26:40;;;;;;;38.10;17.88;;;;;;;;;;5035217;28;20535;-60
2022/12/15 08:29:09;;;;;;;36.80;17.17;;;;;;;;;;5031256;28;20033;-57
2022/12/15 08:31:35;;;;;;;37.33;17.20;;;;;;;;;;5052775;28;20036;-58
2022/12/15 08:34:00;;;;;;;42.15;17.95;;;;;;;;;;5052907;28;20119;-57
2022/12/15 08:36:27;;;;;;;40.17;17.00;;;;;;;;;;5052158;28;20704;-56
2022/12/15 08:38:55;;;;;;;42.85;17.55;;;;;;;;;;5051287;28;20029;-55
2022/12/15 08:41:23;;;;;;;43.67;18.27;;;;;;;;;;5053559;28;20029;-56
2022/12/15 08:43:50;;;;;;;46.70;19.33;;;;;;;;;;5050667;28;20055;-55
2022/12/15 08:46:17;;;;;;;38.97;17.90;;;;;;;;;;5053647;28;20431;-56
2022/12/15 08:48:43;;;;;;;42.17;18.63;;;;;;;;;;5052247;28;20130;-57
2022/12/15 08:51:09;;;;;;;42.78;19.00;;;;;;;;;;5050766;28;20032;-57
2022/12/15 08:53:34;;;;;;;38.03;18.27;;;;;;;;;;5052649;28;20029;-60
2022/12/15 08:56:09;;;;;;;45.97;19.10;;;;;;;;;;5051930;28;20041;-55
2022/12/15 08:58:34;;;;;;;38.55;18.63;;;;;;;;;;5052462;28;20036;-60
2022/12/15 09:01:02;;;;;;;39.67;18.65;;;;;;;;;;5035869;28;20041;-58
2022/12/15 09:03:28;;;;;;;35.60;16.63;;;;;;;;;;5035185;28;20025;-57
2022/12/15 09:05:53;;;;;;;42.75;19.17;;;;;;;;;;5051568;28;20032;-59
2022/12/15 09:08:19;;;;;;;48.72;19.38;;;;;;;;;;5052859;28;20060;-60
2022/12/15 09:10:44;;;;;;;37.00;17.45;;;;;;;;;;5045121;28;20436;-54
2022/12/15 09:13:09;;;;;;;43.22;18.88;;;;;;;;;;5053085;28;20025;-55
2022/12/15 09:15:35;;;;;;;40.13;18.10;;;;;;;;;;5049134;28;20060;-62
2022/12/15 09:18:00;;;;;;;41.90;19.73;;;;;;;;;;5052737;28;20465;-62
2022/12/15 09:20:25;;;;;;;44.78;19.48;;;;;;;;;;5049986;28;20033;-57
2022/12/15 09:22:51;;;;;;;41.88;17.20;;;;;;;;;;5050630;28;20033;-57
2022/12/15 09:25:16;;;;;;;43.50;19.40;;;;;;;;;;5034484;28;20029;-59
2022/12/15 09:27:41;;;;;;;42.55;16.75;;;;;;;;;;5050977;28;20468;-58
2022/12/15 09:30:08;;;;;;;40.10;17.80;;;;;;;;;;5052341;28;20032;-63
2022/12/15 09:32:33;;;;;;;41.30;19.15;;;;;;;;;;5040153;28;20056;-66
2022/12/15 09:34:59;;;;;;;37.45;19.08;;;;;;;;;;5051368;28;20466;-64
2022/12/15 09:37:24;;;;;;;39.47;19.05;;;;;;;;;;5051076;28;20029;-57
2022/12/15 09:39:49;;;;;;;45.58;19.85;;;;;;;;;;5032836;28;20040;-56
2022/12/15 09:42:24;;;;;;;41.78;18.98;;;;;;;;;;5052510;28;20032;-59
2022/12/15 09:45:03;;;;;;;40.05;19.15;;;;;;;;;;5033053;28;20025;-60
2022/12/15 09:47:50;;;;;;;46.55;20.40;;;;;;;;;;5052364;28;20048;-58
2022/12/15 09:50:18;;;;;;;43.33;18.67;;;;;;;;;;5050857;28;20033;-56
2022/12/15 09:52:48;;;;;;;38.72;18.00;;;;;;;;;;5048598;28;20040;-57
2022/12/15 09:55:20;;;;;;;41.08;17.10;;;;;;;;;;5048293;28;20037;-57
2022/12/15 09:57:52;;;;;;;38.78;18.38;;;;;;;;;;5027914;28;20036;-58
2022/12/15 10:00:24;;;;;;;39.92;18.95;;;;;;;;;;5033303;28;20397;-56
2022/12/15 10:03:01;;;;;;;39.47;17.58;;;;;;;;;;5036971;28;20037;-59
2022/12/15 10:05:33;;;;;;;35.60;17.42;;;;;;;;;;5052340;28;20035;-58
2022/12/15 10:07:59;;;;;;;39.20;19.83;;;;;;;;;;5047148;28;20035;-58
2022/12/15 10:10:32;;;;;;;39.47;19.27;;;;;;;;;;5052208;28;20077;-55
2022/12/15 10:13:06;;;;;;;40.70;18.92;;;;;;;;;;5030967;28;20123;-59
2022/12/15 10:15:57;;;;;;;36.70;18.83;;;;;;;;;;5051244;28;20362;-58
2022/12/15 10:18:30;;;;;;;38.83;19.17;;;;;;;;;;5050535;28;20477;-58
2022/12/15 10:20:59;;;;;;;42.05;19.55;;;;;;;;;;5048141;28;20032;-60
2022/12/15 10:23:24;;;;;;;40.50;19.42;;;;;;;;;;5049136;28;20064;-59
2022/12/15 10:25:58;;;;;;;34.60;16.92;;;;;;;;;;5048110;28;20422;-59
2022/12/15 10:28:51;;;;;;;34.95;16.15;;;;;;;;;;5051733;28;20025;-60
2022/12/15 10:31:42;;;;;;;30.85;15.25;;;;;;;;;;5050739;28;20049;-58
2022/12/15 10:34:17;;;;;;;32.25;15.93;;;;;;;;;;5038806;28;20049;-57
2022/12/15 10:36:49;;;;;;;25.63;11.52;;;;;;;;;;5046129;28;20130;-62
2022/12/15 10:39:15;;;;;;;43.20;18.15;;;;;;;;;;5033565;28;20036;-57
2022/12/15 10:41:40;;;;;;;39.80;17.00;;;;;;;;;;5050584;28;20040;-57
2022/12/15 10:44:23;;;;;;;34.15;16.42;;;;;;;;;;5051466;28;20025;-53
2022/12/15 10:46:54;;;;;;;32.45;16.10;;;;;;;;;;5050432;28;20152;-57
2022/12/15 10:49:23;;;;;;;40.08;19.55;;;;;;;;;;5051537;28;20075;-56
2022/12/15 10:51:58;;;;;;;32.88;15.70;;;;;;;;;;5039020;28;20029;-59
2022/12/15 10:54:29;;;;;;;41.83;19.35;;;;;;;;;;5031509;28;20048;-59
2022/12/15 10:56:57;;;;;;;40.60;18.88;;;;;;;;;;5039121;28;20052;-58
2022/12/15 10:59:30;;;;;;;34.58;15.82;;;;;;;;;;5051056;28;20037;-58
2022/12/15 11:02:32;;;;;;;29.98;14.07;;;;;;;;;;5035250;28;20128;-57
2022/12/15 11:04:59;;;;;;;32.10;15.30;;;;;;;;;;5046841;28;20098;-58
2022/12/15 11:07:40;;;;;;;31.15;15.32;;;;;;;;;;5036675;28;20048;-56
2022/12/15 11:10:26;;;;;;;;;;;;;;;;;;5036430;28;20402;-53
2022/12/15 11:13:09;;;;;;;36.58;17.70;;;;;;;;;;5013936;28;20366;-56
2022/12/15 11:15:41;;;;;;;37.13;18.60;;;;;;;;;;5040222;28;20021;-54
2022/12/15 11:18:42;;;;;;;32.65;15.80;;;;;;;;;;5050114;28;20067;-59
2022/12/15 11:21:33;;;;;;;38.65;17.67;;;;;;;;;;5039187;28;20107;-56
2022/12/15 11:24:17;;;;;;;37.53;16.98;;;;;;;;;;4999350;28;20044;-55
2022/12/15 11:27:00;;;;;;;36.97;17.58;;;;;;;;;;5035117;28;20032;-54
2022/12/15 11:29:41;;;;;;;38.88;18.77;;;;;;;;;;5038893;28;20029;-57
2022/12/15 11:32:09;;;;;;;;;;;;;;;;;;5033674;28;20037;-53
2022/12/15 11:34:36;;;;;;;39.50;17.80;;;;;;;;;;5016698;28;19959;-56
2022/12/15 11:37:29;;;;;;;40.00;18.05;;;;;;;;;;5052883;28;20033;-53
2022/12/15 11:40:27;;;;;;;38.35;17.02;;;;;;;;;;5052169;28;20047;-58
2022/12/15 11:43:01;;;;;;;38.05;18.35;;;;;;;;;;5031433;28;20118;-57
2022/12/15 11:45:54;;;;;;;35.80;16.77;;;;;;;;;;5054931;28;20033;-54
2022/12/15 11:48:47;;;;;;;43.72;17.52;;;;;;;;;;5045080;28;20030;-57
2022/12/15 11:51:39;;;;;;;31.80;14.75;;;;;;;;;;5049816;28;20029;-61
2022/12/15 11:54:14;;;;;;;37.90;17.98;;;;;;;;;;5032889;28;20180;-54
2022/12/15 11:56:58;;;;;;;26.23;13.93;;;;;;;;;;5053827;28;20500;-61
2022/12/15 11:59:48;;;;;;;34.03;17.60;;;;;;;;;;5053359;28;20519;-55
2022/12/15 12:02:43;;;;;;;32.20;15.40;;;;;;;;;;5053446;28;20068;-53
2022/12/15 12:05:46;;;;;;;35.45;17.08;;;;;;;;;;5000766;28;20041;-56
2022/12/15 12:08:24;;;;;;;37.97;18.30;;;;;;;;;;5033838;28;20044;-53
2022/12/15 12:11:14;;;;;;;33.13;16.27;;;;;;;;;;5041912;28;20044;-57
2022/12/15 12:13:49;;;;;;;40.72;18.08;;;;;;;;;;5052278;28;20541;-60
2022/12/15 12:16:29;;;;;;;40.67;17.98;;;;;;;;;;5053851;28;20056;-59
2022/12/15 12:19:10;;;;;;;35.57;17.27;;;;;;;;;;5052310;28;20465;-56
2022/12/15 12:21:44;;;;;;;30.25;15.75;;;;;;;;;;5052707;28;20110;-57
2022/12/15 12:24:28;;;;;;;31.13;15.45;;;;;;;;;;5053567;28;20084;-56
2022/12/15 12:27:21;;;;;;;37.15;16.38;;;;;;;;;;5030872;28;20033;-59
2022/12/15 12:29:54;;;;;;;36.58;17.10;;;;;;;;;;5033222;28;20481;-56
2022/12/15 12:32:40;;;;;;;38.80;17.00;;;;;;;;;;5053502;28;20040;-60
2022/12/15 12:35:23;;;;;;;31.73;15.85;;;;;;;;;;5052365;28;20636;-58
2022/12/15 12:37:52;;;;;;;29.85;14.73;;;;;;;;;;5033939;28;20094;-60
2022/12/15 12:40:43;;;;;;;27.63;13.60;;;;;;;;;;5038163;28;20077;-58
2022/12/15 12:43:19;;;;;;;34.15;15.82;;;;;;;;;;5034106;28;20139;-58
2022/12/15 12:45:56;;;;;;;35.38;17.55;;;;;;;;;;5022250;28;20040;-60
2022/12/15 12:48:33;;;;;;;39.03;18.45;;;;;;;;;;5043476;28;20033;-58
2022/12/15 12:51:28;;;;;;;36.53;17.02;;;;;;;;;;5047330;28;20864;-58
2022/12/15 12:53:55;;;;;;;36.90;17.85;;;;;;;;;;5050278;28;20174;-55
2022/12/15 12:56:38;;;;;;;33.63;16.80;;;;;;;;;;5034516;28;20044;-60
2022/12/15 12:59:25;;;;;;;36.15;17.63;;;;;;;;;;5047697;28;20041;-58
2022/12/15 13:01:50;;;;;;;37.17;16.30;;;;;;;;;;5039962;28;20191;-62
2022/12/15 13:04:28;;;;;;;35.65;17.20;;;;;;;;;;5051356;28;20116;-60
2022/12/15 13:07:00;;;;;;;35.03;16.38;;;;;;;;;;5050179;28;20033;-53
2022/12/15 13:09:42;;;;;;;35.72;17.30;;;;;;;;;;5053193;28;20369;-55
2022/12/15 13:12:45;;;;;;;35.80;17.33;;;;;;;;;;5049302;28;20025;-58
2022/12/15 13:15:21;;;;;;;36.50;16.95;;;;;;;;;;5034008;28;20052;-59
2022/12/15 13:17:54;;;;;;;33.40;14.95;;;;;;;;;;5052271;28;20041;-61
2022/12/15 13:20:19;;;;;;;36.17;17.42;;;;;;;;;;5047409;28;20120;-60
2022/12/15 13:22:45;;;;;;;36.58;17.13;;;;;;;;;;5017666;28;20120;-57
2022/12/15 13:25:38;;;;;;;36.80;17.52;;;;;;;;;;5038876;28;20123;-62
2022/12/15 13:28:26;;;;;;;38.17;18.33;;;;;;;;;;5066218;28;20278;-56
2022/12/15 13:31:22;;;;;;;38.65;18.50;;;;;;;;;;5031590;28;20025;-59
2022/12/15 13:33:57;;;;;;;38.10;18.45;;;;;;;;;;5048819;28;20037;-53
2022/12/15 13:36:43;;;;;;;37.97;18.52;;;;;;;;;;5027260;28;20033;-59
2022/12/15 13:39:11;;;;;;;36.40;17.30;;;;;;;;;;5032903;28;20030;-59
2022/12/15 13:42:00;;;;;;;38.88;18.38;;;;;;;;;;5044063;28;20037;-60
2022/12/15 13:44:31;;;;;;;39.40;18.95;;;;;;;;;;4999582;28;20037;-59
2022/12/15 13:47:06;;;;;;;36.95;17.45;;;;;;;;;;5050086;28;20048;-60
2022/12/15 13:49:59;;;;;;;33.80;17.38;;;;;;;;;;5032846;28;20028;-58
2022/12/15 13:52:54;;;;;;;40.22;18.92;;;;;;;;;;5021809;28;20040;-59
2022/12/15 13:55:23;;;;;;;36.75;17.20;;;;;;;;;;5050557;28;20065;-60
2022/12/15 13:58:01;;;;;;;36.65;18.10;;;;;;;;;;5038373;28;20092;-59
2022/12/15 14:00:27;;;;;;;35.53;18.55;;;;;;;;;;5038075;28;20381;-57
2022/12/15 14:03:09;;;;;;;35.63;18.15;;;;;;;;;;5051463;28;20040;-58
2022/12/15 14:05:35;;;;;;;40.92;19.77;;;;;;;;;;5050183;28;20037;-55
2022/12/15 14:08:02;;;;;;;39.75;19.88;;;;;;;;;;5051016;28;20021;-60
2022/12/15 14:10:46;;;;;;;35.60;18.58;;;;;;;;;;5050651;28;20044;-59
2022/12/15 14:13:14;;;;;;;35.40;19.42;;;;;;;;;;5034252;28;20373;-59
2022/12/15 14:15:47;;;;;;;38.95;19.40;;;;;;;;;;5032655;28;20037;-59
2022/12/15 14:18:21;;;;;;;37.75;19.02;;;;;;;;;;5050667;28;20392;-59
2022/12/15 14:20:47;;;;;;;36.30;18.83;;;;;;;;;;5051011;28;20033;-61
2022/12/15 14:23:25;;;;;;;35.75;19.20;;;;;;;;;;5032268;28;20108;-58
2022/12/15 14:26:06;;;;;;;35.20;18.10;;;;;;;;;;5047901;28;20052;-58
2022/12/15 14:28:35;;;;;;;35.95;18.85;;;;;;;;;;5032586;28;20040;-57
2022/12/15 14:31:10;;;;;;;35.65;18.52;;;;;;;;;;5048951;28;20116;-57
2022/12/15 14:33:39;;;;;;;37.28;20.20;;;;;;;;;;5050407;28;20025;-61
2022/12/15 14:36:10;;;;;;;37.25;18.88;;;;;;;;;;5046205;28;20478;-61
2022/12/15 14:38:48;;;;;;;35.63;18.65;;;;;;;;;;5046340;28;20044;-56
2022/12/15 14:41:23;;;;;;;42.00;20.33;;;;;;;;;;5049042;28;20194;-59
2022/12/15 14:43:49;;;;;;;34.55;18.25;;;;;;;;;;5048877;28;20523;-58
2022/12/15 14:46:22;;;;;;;37.50;19.13;;;;;;;;;;5047257;28;20036;-56
2022/12/15 14:48:55;;;;;;;36.35;19.48;;;;;;;;;;5050096;28;20486;-59
2022/12/15 14:51:22;;;;;;;38.53;18.98;;;;;;;;;;5046623;28;20104;-58
2022/12/15 14:53:49;;;;;;;41.97;20.00;;;;;;;;;;5043265;28;20060;-59
2022/12/15 14:56:24;;;;;;;38.13;19.67;;;;;;;;;;5028397;28;20048;-60
2022/12/15 14:59:04;;;;;;;40.45;19.90;;;;;;;;;;5049573;28;20028;-60
2022/12/15 15:01:51;;;;;;;41.20;19.48;;;;;;;;;;5051061;28;20363;-58
2022/12/15 15:04:27;;;;;;;42.55;19.85;;;;;;;;;;5046335;28;20033;-57
2022/12/15 15:06:55;;;;;;;38.90;19.65;;;;;;;;;;5023182;28;20036;-56
2022/12/15 15:09:24;;;;;;;40.15;20.00;;;;;;;;;;5031163;28;20025;-56
2022/12/15 15:12:12;;;;;;;39.25;19.60;;;;;;;;;;5035042;28;20087;-59
2022/12/15 15:14:41;;;;;;;43.22;20.33;;;;;;;;;;5050251;28;20044;-58
2022/12/15 15:17:12;;;;;;;46.88;21.00;;;;;;;;;;5049639;28;20675;-57
2022/12/15 15:19:45;;;;;;;45.58;22.42;;;;;;;;;;5051084;28;20055;-60
2022/12/15 15:22:38;;;;;;;39.25;21.05;;;;;;;;;;5028310;28;20037;-57
2022/12/15 15:25:28;;;;;;;42.92;20.95;;;;;;;;;;5004960;28;20045;-57
2022/12/15 15:28:27;;;;;;;45.67;21.60;;;;;;;;;;5028628;28;20108;-60
2022/12/15 15:31:04;;;;;;;44.17;20.75;;;;;;;;;;5050238;28;20258;-59
2022/12/15 15:33:30;;;;;;;46.28;21.90;;;;;;;;;;5048620;28;20044;-57
2022/12/15 15:35:58;;;;;;;42.80;20.48;;;;;;;;;;5031475;28;20389;-56
2022/12/15 15:38:25;;;;;;;44.08;20.83;;;;;;;;;;5048241;28;20029;-58
2022/12/15 15:40:57;;;;;;;47.72;22.70;;;;;;;;;;5049977;28;20444;-58
2022/12/15 15:43:24;;;;;;;44.22;21.48;;;;;;;;;;5039023;28;20120;-60
2022/12/15 15:46:02;;;;;;;48.85;22.45;;;;;;;;;;5030280;28;20033;-62
2022/12/15 15:48:30;;;;;;;52.10;21.83;;;;;;;;;;5046457;28;20083;-57
2022/12/15 15:50:57;;;;;;;50.97;23.83;;;;;;;;;;5047460;28;20473;-57
2022/12/15 15:53:24;;;;;;;46.70;21.67;;;;;;;;;;5012215;28;20025;-58
2022/12/15 15:55:53;;;;;;;46.30;22.25;;;;;;;;;;5046390;28;20045;-61
2022/12/15 15:58:18;;;;;;;47.92;22.20;;;;;;;;;;5045194;28;20033;-55
2022/12/15 16:00:44;;;;;;;53.95;22.33;;;;;;;;;;5049451;28;20040;-58
2022/12/15 16:03:10;;;;;;;50.28;23.35;;;;;;;;;;5028440;28;20183;-59
2022/12/15 16:05:35;;;;;;;51.80;24.15;;;;;;;;;;5048417;28;20048;-55
2022/12/15 16:08:02;;;;;;;52.50;23.85;;;;;;;;;;5049593;28;20085;-57
2022/12/15 16:10:28;;;;;;;48.97;23.27;;;;;;;;;;5049138;28;20052;-56
2022/12/15 16:12:55;;;;;;;53.67;24.20;;;;;;;;;;5048027;28;20462;-59
2022/12/15 16:15:24;;;;;;;51.60;22.80;;;;;;;;;;5054017;28;20025;-58
2022/12/15 16:17:50;;;;;;;50.65;23.02;;;;;;;;;;5035036;28;20472;-62
2022/12/15 16:20:18;;;;;;;55.20;23.90;;;;;;;;;;5053808;28;20032;-54
2022/12/15 16:23:02;;;;;;;58.15;24.15;;;;;;;;;;5040075;28;20037;-59
2022/12/15 16:25:38;;;;;;;51.97;23.17;;;;;;;;;;5053814;28;20028;-58
2022/12/15 16:28:15;;;;;;;50.78;23.13;;;;;;;;;;5050492;28;20036;-57
2022/12/15 16:30:42;;;;;;;53.00;23.52;;;;;;;;;;5054042;28;20457;-59
2022/12/15 16:33:08;;;;;;;57.42;26.25;;;;;;;;;;5052267;28;20037;-56
2022/12/15 16:35:34;;;;;;;63.35;26.48;;;;;;;;;;5054261;28;20032;-56
2022/12/15 16:38:05;;;;;;;59.60;25.55;;;;;;;;;;5025694;28;20109;-57
2022/12/15 16:40:36;;;;;;;59.90;27.05;;;;;;;;;;5034067;28;20496;-58
2022/12/15 16:43:02;;;;;;;;;;;;;;;;;;5028005;28;20461;-58
2022/12/15 16:45:30;;;;;;;55.63;25.25;;;;;;;;;;5051012;28;19916;-60
2022/12/15 16:47:56;;;;;;;58.08;25.30;;;;;;;;;;5034773;28;20040;-58
2022/12/15 16:50:35;;;;;;;55.20;24.38;;;;;;;;;;5034984;28;20437;-58
2022/12/15 16:53:02;;;;;;;58.17;24.73;;;;;;;;;;5052448;28;20037;-58
2022/12/15 16:55:30;;;;;;;50.38;23.85;;;;;;;;;;5050349;28;20041;-59
2022/12/15 16:58:04;;;;;;;65.30;27.55;;;;;;;;;;5031475;28;20034;-58
2022/12/15 17:00:33;;;;;;;63.83;27.27;;;;;;;;;;5052269;28;20106;-59
2022/12/15 17:03:00;;;;;;;55.60;25.88;;;;;;;;;;5051021;28;20045;-58
2022/12/15 17:05:35;;;;;;;79.82;30.70;;;;;;;;;;5048931;28;20525;-56
2022/12/15 17:08:04;;;;;;;91.03;31.52;;;;;;;;;;5026190;28;20083;-61
2022/12/15 17:10:30;;;;;;;76.15;31.33;;;;;;;;;;5044935;28;20032;-58
2022/12/15 17:13:14;;;;;;;84.40;34.97;;;;;;;;;;5048110;28;20033;-57